sensor_id;sensor_type;location;lat;lon;timestamp;pressure;altitude;pressure_sealevel;temperature;humidity
39295;BME280;52361;52.100;5.248;2023-02-21T02:14:42;101905.0;;;10.87;100.0
39295;BME280;52361;52.100;5.248;2023-02-21T02:16:32;101905.0;;;10.86;100.0
39295;BME280;52361;52.100;5.248;2023-02-21T02:22:07;101902.0;;;10.86;100.0
39295;BME280;52361;52.100;5.248;2023-02-21T02:24:53;101900.0;;;10.88;100.0
39295;BME280;52361;52.100;5.248;2023-02-21T02:26:55;101903.0;;;10.85;100.0
39295;BME280;52361;52.100;5.248;2023-02-21T02:34:54;101896.0;;;10.9;100.0
39295;BME280;52361;52.100;5.248;2023-02-21T02:36:38;101902.0;;;10.87;100.0
39295;BME280;52361;52.100;5.248;2023-02-21T02:38:22;101902.0;;;10.94;100.0
39295;BME280;52361;52.100;5.248;2023-02-21T02:40:08;101898.0;;;10.84;100.0
39295;BME280;52361;52.100;5.248;2023-02-21T02:43:43;101899.0;;;10.84;100.0
39295;BME280;52361;52.100;5.248;2023-02-21T02:45:29;101896.0;;;10.9;100.0
39295;BME280;52361;52.100;5.248;2023-02-21T02:47:14;101898.0;;;10.92;100.0
39295;BME280;52361;52.100;5.248;2023-02-21T02:48:59;101900.0;;;10.88;100.0
39295;BME280;52361;52.100;5.248;2023-02-21T02:50:38;101901.0;;;10.85;100.0
39295;BME280;52361;52.100;5.248;2023-02-21T02:53:52;101901.0;;;10.89;100.0
39295;BME280;52361;52.100;5.248;2023-02-21T02:55:34;101903.0;;;10.83;100.0
39295;BME280;52361;52.100;5.248;2023-02-21T02:57:12;101898.0;;;10.88;100.0
39295;BME280;52361;52.100;5.248;2023-02-21T02:58:51;101901.0;;;10.81;100.0
39295;BME280;52361;52.100;5.248;2023-02-21T03:02:36;101900.0;;;10.88;100.0
39295;BME280;52361;52.100;5.248;2023-02-21T03:04:43;101903.0;;;10.79;100.0
39295;BME280;52361;52.100;5.248;2023-02-21T03:06:42;101901.0;;;10.82;100.0
39295;BME280;52361;52.100;5.248;2023-02-21T03:08:32;101899.0;;;10.78;100.0
39295;BME280;52361;52.100;5.248;2023-02-21T03:10:20;101899.0;;;10.76;100.0
39295;BME280;52361;52.100;5.248;2023-02-21T03:12:07;101903.0;;;10.76;100.0
39295;BME280;52361;52.100;5.248;2023-02-21T03:13:54;101903.0;;;10.76;100.0
39295;BME280;52361;52.100;5.248;2023-02-21T03:15:37;101898.0;;;10.66;100.0
39295;BME280;52361;52.100;5.248;2023-02-21T03:19:04;101896.0;;;10.72;100.0
39295;BME280;52361;52.100;5.248;2023-02-21T03:20:46;101895.0;;;10.65;100.0
39295;BME280;52361;52.100;5.248;2023-02-21T03:22:28;101895.0;;;10.66;100.0
39295;BME280;52361;52.100;5.248;2023-02-21T03:24:07;101895.0;;;10.64;100.0
39295;BME280;52361;52.100;5.248;2023-02-21T03:27:25;101892.0;;;10.7;100.0
39295;BME280;52361;52.100;5.248;2023-02-21T03:29:05;101894.0;;;10.7;100.0
39295;BME280;52361;52.100;5.248;2023-02-21T03:30:43;101891.0;;;10.72;100.0
39295;BME280;52361;52.100;5.248;2023-02-21T03:35:33;101889.0;;;10.8;100.0
39295;BME280;52361;52.100;5.248;2023-02-21T03:37:18;101891.0;;;10.86;100.0
39295;BME280;52361;52.100;5.248;2023-02-21T03:38:56;101891.0;;;10.79;100.0
39295;BME280;52361;52.100;5.248;2023-02-21T03:40:33;101888.0;;;10.89;100.0
39295;BME280;52361;52.100;5.248;2023-02-21T03:43:45;101889.0;;;10.84;100.0
39295;BME280;52361;52.100;5.248;2023-02-21T03:45:21;101891.0;;;10.69;100.0
39295;BME280;52361;52.100;5.248;2023-02-21T03:46:58;101886.0;;;10.74;100.0
39295;BME280;52361;52.100;5.248;2023-02-21T03:50:11;101886.0;;;10.78;100.0
39295;BME280;52361;52.100;5.248;2023-02-21T03:51:48;101880.0;;;10.82;100.0
39295;BME280;52361;52.100;5.248;2023-02-21T03:53:24;101878.0;;;10.73;100.0
39295;BME280;52361;52.100;5.248;2023-02-21T03:56:37;101885.0;;;10.82;100.0
39295;BME280;52361;52.100;5.248;2023-02-21T03:58:14;101890.0;;;10.83;100.0
39295;BME280;52361;52.100;5.248;2023-02-21T03:59:50;101888.0;;;10.9;100.0
39295;BME280;52361;52.100;5.248;2023-02-21T04:01:27;101888.0;;;10.85;100.0
39295;BME280;52361;52.100;5.248;2023-02-21T04:04:39;101887.0;;;10.81;100.0
39295;BME280;52361;52.100;5.248;2023-02-21T04:06:16;101880.0;;;10.81;100.0
39295;BME280;52361;52.100;5.248;2023-02-21T04:07:52;101883.0;;;10.69;100.0
39295;BME280;52361;52.100;5.248;2023-02-21T04:11:05;101880.0;;;10.7;100.0
39295;BME280;52361;52.100;5.248;2023-02-21T04:12:42;101877.0;;;10.7;100.0
39295;BME280;52361;52.100;5.248;2023-02-21T04:14:18;101875.0;;;10.67;100.0
39295;BME280;52361;52.100;5.248;2023-02-21T04:17:31;101872.0;;;10.77;100.0
39295;BME280;52361;52.100;5.248;2023-02-21T04:19:06;101875.0;;;10.8;100.0
39295;BME280;52361;52.100;5.248;2023-02-21T04:20:45;101878.0;;;10.71;100.0
39295;BME280;52361;52.100;5.248;2023-02-21T04:22:22;101884.0;;;10.65;100.0
39295;BME280;52361;52.100;5.248;2023-02-21T04:25:35;101880.0;;;10.68;100.0
39295;BME280;52361;52.100;5.248;2023-02-21T04:27:12;101876.0;;;10.69;100.0
39295;BME280;52361;52.100;5.248;2023-02-21T04:28:48;101880.0;;;10.76;100.0
39295;BME280;52361;52.100;5.248;2023-02-21T04:32:02;101880.0;;;10.84;100.0
39295;BME280;52361;52.100;5.248;2023-02-21T04:33:38;101882.0;;;10.8;100.0
39295;BME280;52361;52.100;5.248;2023-02-21T04:35:15;101874.0;;;10.79;100.0
39295;BME280;52361;52.100;5.248;2023-02-21T04:38:27;101867.0;;;10.79;100.0
39295;BME280;52361;52.100;5.248;2023-02-21T04:40:04;101870.0;;;10.75;100.0
39295;BME280;52361;52.100;5.248;2023-02-21T04:41:40;101870.0;;;10.66;100.0
39295;BME280;52361;52.100;5.248;2023-02-21T04:43:20;101867.0;;;10.62;100.0
39295;BME280;52361;52.100;5.248;2023-02-21T04:46:32;101867.0;;;10.59;100.0
39295;BME280;52361;52.100;5.248;2023-02-21T04:48:09;101864.0;;;10.51;100.0
39295;BME280;52361;52.100;5.248;2023-02-21T04:49:50;101861.0;;;10.58;100.0
39295;BME280;52361;52.100;5.248;2023-02-21T04:53:02;101853.0;;;10.58;100.0
39295;BME280;52361;52.100;5.248;2023-02-21T04:54:38;101858.0;;;10.58;100.0
39295;BME280;52361;52.100;5.248;2023-02-21T04:56:17;101861.0;;;10.66;100.0
39295;BME280;52361;52.100;5.248;2023-02-21T04:57:54;101855.0;;;10.65;100.0
39295;BME280;52361;52.100;5.248;2023-02-21T05:01:06;101856.0;;;10.66;100.0
39295;BME280;52361;52.100;5.248;2023-02-21T05:02:43;101857.0;;;10.66;100.0
39295;BME280;52361;52.100;5.248;2023-02-21T05:04:19;101849.0;;;10.63;100.0
39295;BME280;52361;52.100;5.248;2023-02-21T05:07:32;101847.0;;;10.59;100.0
39295;BME280;52361;52.100;5.248;2023-02-21T05:09:08;101848.0;;;10.68;100.0
39295;BME280;52361;52.100;5.248;2023-02-21T05:10:45;101852.0;;;10.69;100.0
39295;BME280;52361;52.100;5.248;2023-02-21T05:13:57;101855.0;;;10.63;100.0
39295;BME280;52361;52.100;5.248;2023-02-21T05:15:34;101855.0;;;10.63;100.0
39295;BME280;52361;52.100;5.248;2023-02-21T05:17:10;101856.0;;;10.55;100.0
39295;BME280;52361;52.100;5.248;2023-02-21T05:20:24;101853.0;;;10.58;100.0
39295;BME280;52361;52.100;5.248;2023-02-21T05:22:02;101851.0;;;10.68;100.0
39295;BME280;52361;52.100;5.248;2023-02-21T05:23:40;101855.0;;;10.76;100.0
39295;BME280;52361;52.100;5.248;2023-02-21T05:25:18;101859.0;;;10.77;100.0
39295;BME280;52361;52.100;5.248;2023-02-21T05:28:32;101863.0;;;10.75;100.0
39295;BME280;52361;52.100;5.248;2023-02-21T05:30:10;101863.0;;;10.72;100.0
39295;BME280;52361;52.100;5.248;2023-02-21T05:31:47;101869.0;;;10.78;100.0
39295;BME280;52361;52.100;5.248;2023-02-21T05:35:01;101869.0;;;10.68;100.0
39295;BME280;52361;52.100;5.248;2023-02-21T05:36:38;101872.0;;;10.74;100.0
39295;BME280;52361;52.100;5.248;2023-02-21T05:38:16;101870.0;;;10.76;100.0
39295;BME280;52361;52.100;5.248;2023-02-21T05:39:53;101869.0;;;10.74;100.0
39295;BME280;52361;52.100;5.248;2023-02-21T05:43:06;101864.0;;;10.66;100.0
39295;BME280;52361;52.100;5.248;2023-02-21T05:46:23;101874.0;;;10.64;100.0
39295;BME280;52361;52.100;5.248;2023-02-21T05:49:38;101880.0;;;10.67;100.0
39295;BME280;52361;52.100;5.248;2023-02-21T05:51:15;101885.0;;;10.63;100.0
39295;BME280;52361;52.100;5.248;2023-02-21T05:52:52;101889.0;;;10.61;100.0
39295;BME280;52361;52.100;5.248;2023-02-21T05:54:28;101883.0;;;10.64;100.0
39295;BME280;52361;52.100;5.248;2023-02-21T05:57:40;101881.0;;;10.64;100.0
39295;BME280;52361;52.100;5.248;2023-02-21T05:59:19;101874.0;;;10.61;100.0
39295;BME280;52361;52.100;5.248;2023-02-21T06:00:56;101869.0;;;10.53;100.0
39295;BME280;52361;52.100;5.248;2023-02-21T06:04:09;101868.0;;;10.6;100.0
39295;BME280;52361;52.100;5.248;2023-02-21T06:05:46;101876.0;;;10.48;100.0
39295;BME280;52361;52.100;5.248;2023-02-21T06:07:22;101878.0;;;10.42;100.0
39295;BME280;52361;52.100;5.248;2023-02-21T06:10:35;101882.0;;;10.57;100.0
39295;BME280;52361;52.100;5.248;2023-02-21T06:12:12;101888.0;;;10.55;100.0
39295;BME280;52361;52.100;5.248;2023-02-21T06:13:49;101886.0;;;10.67;100.0
39295;BME280;52361;52.100;5.248;2023-02-21T06:15:26;101876.0;;;10.68;100.0
39295;BME280;52361;52.100;5.248;2023-02-21T06:18:38;101880.0;;;10.63;100.0
39295;BME280;52361;52.100;5.248;2023-02-21T06:20:16;101875.0;;;10.54;100.0
39295;BME280;52361;52.100;5.248;2023-02-21T06:21:53;101876.0;;;10.43;100.0
39295;BME280;52361;52.100;5.248;2023-02-21T06:25:06;101872.0;;;10.39;100.0
39295;BME280;52361;52.100;5.248;2023-02-21T06:26:44;101884.0;;;10.54;100.0
39295;BME280;52361;52.100;5.248;2023-02-21T06:28:20;101884.0;;;10.47;100.0
39295;BME280;52361;52.100;5.248;2023-02-21T06:29:57;101882.0;;;10.4;100.0
39295;BME280;52361;52.100;5.248;2023-02-21T06:33:09;101883.0;;;10.44;100.0
39295;BME280;52361;52.100;5.248;2023-02-21T06:34:45;101883.0;;;10.56;100.0
39295;BME280;52361;52.100;5.248;2023-02-21T06:36:23;101881.0;;;10.56;100.0
39295;BME280;52361;52.100;5.248;2023-02-21T06:39:38;101887.0;;;10.49;100.0
39295;BME280;52361;52.100;5.248;2023-02-21T06:41:16;101888.0;;;10.51;100.0
39295;BME280;52361;52.100;5.248;2023-02-21T06:42:54;101886.0;;;10.54;100.0
39295;BME280;52361;52.100;5.248;2023-02-21T06:46:06;101888.0;;;10.41;100.0
39295;BME280;52361;52.100;5.248;2023-02-21T06:47:42;101890.0;;;10.46;100.0
39295;BME280;52361;52.100;5.248;2023-02-21T06:50:55;101896.0;;;10.58;100.0
39295;BME280;52361;52.100;5.248;2023-02-21T06:54:09;101894.0;;;10.51;100.0
39295;BME280;52361;52.100;5.248;2023-02-21T06:55:44;101895.0;;;10.58;100.0
39295;BME280;52361;52.100;5.248;2023-02-21T06:57:20;101893.0;;;10.58;100.0
39295;BME280;52361;52.100;5.248;2023-02-21T07:00:33;101891.0;;;10.59;100.0
39295;BME280;52361;52.100;5.248;2023-02-21T07:02:14;101889.0;;;10.62;100.0
39295;BME280;52361;52.100;5.248;2023-02-21T07:03:53;101893.0;;;10.58;100.0
39295;BME280;52361;52.100;5.248;2023-02-21T07:10:22;101894.0;;;10.57;100.0
39295;BME280;52361;52.100;5.248;2023-02-21T07:11:58;101895.0;;;10.69;100.0
39295;BME280;52361;52.100;5.248;2023-02-21T07:15:11;101886.0;;;10.74;100.0
39295;BME280;52361;52.100;5.248;2023-02-21T07:16:48;101890.0;;;10.69;100.0
39295;BME280;52361;52.100;5.248;2023-02-21T07:18:26;101892.0;;;10.75;100.0
39295;BME280;52361;52.100;5.248;2023-02-21T07:21:40;101896.0;;;10.7;100.0
39295;BME280;52361;52.100;5.248;2023-02-21T07:23:16;101891.0;;;10.61;100.0
39295;BME280;52361;52.100;5.248;2023-02-21T07:24:53;101895.0;;;10.75;100.0
39295;BME280;52361;52.100;5.248;2023-02-21T07:26:30;101892.0;;;10.73;100.0
39295;BME280;52361;52.100;5.248;2023-02-21T07:29:44;101895.0;;;10.7;100.0
39295;BME280;52361;52.100;5.248;2023-02-21T07:31:21;101896.0;;;10.79;100.0
39295;BME280;52361;52.100;5.248;2023-02-21T07:32:59;101895.0;;;10.8;100.0
39295;BME280;52361;52.100;5.248;2023-02-21T07:36:11;101898.0;;;10.71;100.0
39295;BME280;52361;52.100;5.248;2023-02-21T07:37:47;101891.0;;;10.59;100.0
39295;BME280;52361;52.100;5.248;2023-02-21T07:39:23;101892.0;;;10.61;100.0
39295;BME280;52361;52.100;5.248;2023-02-21T07:42:40;101896.0;;;10.8;100.0
39295;BME280;52361;52.100;5.248;2023-02-21T07:44:19;101898.0;;;10.72;100.0
39295;BME280;52361;52.100;5.248;2023-02-21T07:45:55;101899.0;;;10.84;100.0
39295;BME280;52361;52.100;5.248;2023-02-21T07:47:32;101892.0;;;10.8;100.0
39295;BME280;52361;52.100;5.248;2023-02-21T07:50:45;101894.0;;;10.71;100.0
39295;BME280;52361;52.100;5.248;2023-02-21T07:52:22;101895.0;;;10.69;100.0
39295;BME280;52361;52.100;5.248;2023-02-21T07:53:58;101895.0;;;10.71;100.0
39295;BME280;52361;52.100;5.248;2023-02-21T07:57:11;101902.0;;;10.72;100.0
39295;BME280;52361;52.100;5.248;2023-02-21T08:00:24;101909.0;;;10.86;100.0
39295;BME280;52361;52.100;5.248;2023-02-21T08:02:01;101906.0;;;10.85;100.0
39295;BME280;52361;52.100;5.248;2023-02-21T08:05:17;101909.0;;;10.7;100.0
39295;BME280;52361;52.100;5.248;2023-02-21T08:06:57;101905.0;;;10.88;100.0
39295;BME280;52361;52.100;5.248;2023-02-21T08:08:34;101910.0;;;10.84;100.0
39295;BME280;52361;52.100;5.248;2023-02-21T08:11:49;101912.0;;;10.82;100.0
39295;BME280;52361;52.100;5.248;2023-02-21T08:13:25;101909.0;;;10.84;100.0
39295;BME280;52361;52.100;5.248;2023-02-21T08:15:01;101908.0;;;10.73;100.0
39295;BME280;52361;52.100;5.248;2023-02-21T08:16:37;101921.0;;;10.64;100.0
39295;BME280;52361;52.100;5.248;2023-02-21T08:19:57;101910.0;;;10.55;100.0
39295;BME280;52361;52.100;5.248;2023-02-21T08:21:33;101913.0;;;10.58;100.0
39295;BME280;52361;52.100;5.248;2023-02-21T08:23:09;101912.0;;;10.68;100.0
39295;BME280;52361;52.100;5.248;2023-02-21T08:26:24;101905.0;;;10.75;100.0
39295;BME280;52361;52.100;5.248;2023-02-21T08:28:00;101906.0;;;10.64;100.0
39295;BME280;52361;52.100;5.248;2023-02-21T08:29:37;101905.0;;;10.75;100.0
39295;BME280;52361;52.100;5.248;2023-02-21T08:32:50;101903.0;;;10.69;100.0
39295;BME280;52361;52.100;5.248;2023-02-21T08:34:28;101903.0;;;10.76;100.0
39295;BME280;52361;52.100;5.248;2023-02-21T08:37:45;101899.0;;;10.84;100.0
39295;BME280;52361;52.100;5.248;2023-02-21T08:40:58;101898.0;;;10.7;100.0
39295;BME280;52361;52.100;5.248;2023-02-21T08:42:34;101894.0;;;10.78;100.0
39295;BME280;52361;52.100;5.248;2023-02-21T08:44:13;101899.0;;;10.79;100.0
39295;BME280;52361;52.100;5.248;2023-02-21T08:47:25;101894.0;;;10.8;100.0
39295;BME280;52361;52.100;5.248;2023-02-21T08:49:03;101899.0;;;10.74;100.0
39295;BME280;52361;52.100;5.248;2023-02-21T08:50:39;101900.0;;;10.81;100.0
39295;BME280;52361;52.100;5.248;2023-02-21T08:52:17;101902.0;;;10.82;100.0
39295;BME280;52361;52.100;5.248;2023-02-21T08:55:29;101896.0;;;10.83;100.0
39295;BME280;52361;52.100;5.248;2023-02-21T08:57:05;101892.0;;;10.77;100.0
39295;BME280;52361;52.100;5.248;2023-02-21T08:58:42;101897.0;;;10.79;100.0
39295;BME280;52361;52.100;5.248;2023-02-21T09:01:58;101899.0;;;10.7;100.0
39295;BME280;52361;52.100;5.248;2023-02-21T09:03:35;101898.0;;;10.67;100.0
39295;BME280;52361;52.100;5.248;2023-02-21T09:05:14;101898.0;;;10.67;100.0
39295;BME280;52361;52.100;5.248;2023-02-21T09:06:53;101894.0;;;10.61;100.0
39295;BME280;52361;52.100;5.248;2023-02-21T09:10:08;101884.0;;;10.56;100.0
39295;BME280;52361;52.100;5.248;2023-02-21T09:11:47;101891.0;;;10.62;100.0
39295;BME280;52361;52.100;5.248;2023-02-21T09:13:24;101890.0;;;10.68;100.0
39295;BME280;52361;52.100;5.248;2023-02-21T09:16:38;101887.0;;;10.74;100.0
39295;BME280;52361;52.100;5.248;2023-02-21T09:18:15;101882.0;;;10.62;100.0
39295;BME280;52361;52.100;5.248;2023-02-21T09:21:28;101884.0;;;10.67;100.0
39295;BME280;52361;52.100;5.248;2023-02-21T09:24:41;101881.0;;;10.62;100.0
39295;BME280;52361;52.100;5.248;2023-02-21T09:26:17;101874.0;;;10.67;100.0
39295;BME280;52361;52.100;5.248;2023-02-21T09:27:53;101874.0;;;10.78;100.0
39295;BME280;52361;52.100;5.248;2023-02-21T09:31:07;101878.0;;;10.79;100.0
39295;BME280;52361;52.100;5.248;2023-02-21T09:32:44;101878.0;;;10.79;100.0
39295;BME280;52361;52.100;5.248;2023-02-21T09:34:23;101875.0;;;10.77;100.0
39295;BME280;52361;52.100;5.248;2023-02-21T09:37:36;101872.0;;;10.82;100.0
39295;BME280;52361;52.100;5.248;2023-02-21T09:39:14;101875.0;;;10.82;100.0
39295;BME280;52361;52.100;5.248;2023-02-21T09:40:55;101869.0;;;10.91;100.0
39295;BME280;52361;52.100;5.248;2023-02-21T09:42:35;101868.0;;;10.94;100.0
39295;BME280;52361;52.100;5.248;2023-02-21T09:45:55;101867.0;;;11.02;100.0
39295;BME280;52361;52.100;5.248;2023-02-21T09:47:36;101867.0;;;10.95;100.0
39295;BME280;52361;52.100;5.248;2023-02-21T09:49:16;101863.0;;;10.97;100.0
39295;BME280;52361;52.100;5.248;2023-02-21T09:51:02;101865.0;;;10.96;100.0
39295;BME280;52361;52.100;5.248;2023-02-21T09:54:22;101864.0;;;11.04;100.0
39295;BME280;52361;52.100;5.248;2023-02-21T09:56:04;101863.0;;;10.97;100.0
39295;BME280;52361;52.100;5.248;2023-02-21T09:57:42;101858.0;;;11.0;100.0
39295;BME280;52361;52.100;5.248;2023-02-21T09:59:18;101855.0;;;11.04;100.0
39295;BME280;52361;52.100;5.248;2023-02-21T10:02:42;101853.0;;;11.09;100.0
39295;BME280;52361;52.100;5.248;2023-02-21T10:04:37;101853.0;;;11.09;100.0
39295;BME280;52361;52.100;5.248;2023-02-21T10:06:32;101853.0;;;11.05;100.0
39295;BME280;52361;52.100;5.248;2023-02-21T10:08:22;101853.0;;;11.09;100.0
39295;BME280;52361;52.100;5.248;2023-02-21T10:10:06;101847.0;;;11.11;100.0
39295;BME280;52361;52.100;5.248;2023-02-21T10:11:54;101856.0;;;11.05;100.0
39295;BME280;52361;52.100;5.248;2023-02-21T10:15:35;101853.0;;;10.95;100.0
39295;BME280;52361;52.100;5.248;2023-02-21T10:17:19;101857.0;;;11.05;100.0
39295;BME280;52361;52.100;5.248;2023-02-21T10:19:02;101848.0;;;11.07;100.0
39295;BME280;52361;52.100;5.248;2023-02-21T10:20:46;101855.0;;;11.0;100.0
39295;BME280;52361;52.100;5.248;2023-02-21T10:22:28;101853.0;;;11.06;100.0
39295;BME280;52361;52.100;5.248;2023-02-21T10:25:52;101852.0;;;11.16;100.0
39295;BME280;52361;52.100;5.248;2023-02-21T10:27:32;101855.0;;;10.94;100.0
39295;BME280;52361;52.100;5.248;2023-02-21T10:29:19;101853.0;;;10.99;100.0
39295;BME280;52361;52.100;5.248;2023-02-21T10:30:57;101859.0;;;11.14;100.0
39295;BME280;52361;52.100;5.248;2023-02-21T10:32:36;101856.0;;;11.13;100.0
39295;BME280;52361;52.100;5.248;2023-02-21T10:35:58;101858.0;;;11.17;100.0
39295;BME280;52361;52.100;5.248;2023-02-21T10:37:38;101864.0;;;11.14;100.0
39295;BME280;52361;52.100;5.248;2023-02-21T10:39:18;101861.0;;;11.13;100.0
39295;BME280;52361;52.100;5.248;2023-02-21T10:42:40;101855.0;;;11.16;100.0
39295;BME280;52361;52.100;5.248;2023-02-21T10:46:10;101857.0;;;11.19;100.0
39295;BME280;52361;52.100;5.248;2023-02-21T10:47:55;101865.0;;;11.21;100.0
39295;BME280;52361;52.100;5.248;2023-02-21T10:49:41;101865.0;;;11.18;100.0
39295;BME280;52361;52.100;5.248;2023-02-21T10:53:05;101866.0;;;11.14;100.0
39295;BME280;52361;52.100;5.248;2023-02-21T10:55:00;101863.0;;;11.19;100.0
39295;BME280;52361;52.100;5.248;2023-02-21T10:56:37;101868.0;;;11.09;100.0
39295;BME280;52361;52.100;5.248;2023-02-21T10:58:22;101859.0;;;11.15;100.0
39295;BME280;52361;52.100;5.248;2023-02-21T11:00:19;101862.0;;;11.18;100.0
39295;BME280;52361;52.100;5.248;2023-02-21T11:05:21;101862.0;;;11.3;100.0
39295;BME280;52361;52.100;5.248;2023-02-21T11:07:01;101857.0;;;11.34;100.0
39295;BME280;52361;52.100;5.248;2023-02-21T11:08:41;101855.0;;;11.27;100.0
39295;BME280;52361;52.100;5.248;2023-02-21T11:10:28;101858.0;;;11.32;100.0
39295;BME280;52361;52.100;5.248;2023-02-21T11:14:06;101855.0;;;11.36;100.0
39295;BME280;52361;52.100;5.248;2023-02-21T11:16:08;101851.0;;;11.42;100.0
39295;BME280;52361;52.100;5.248;2023-02-21T11:19:48;101852.0;;;11.38;100.0
39295;BME280;52361;52.100;5.248;2023-02-21T11:21:26;101855.0;;;11.41;100.0
39295;BME280;52361;52.100;5.248;2023-02-21T11:23:17;101848.0;;;11.43;100.0
39295;BME280;52361;52.100;5.248;2023-02-21T11:24:58;101855.0;;;11.29;100.0
39295;BME280;52361;52.100;5.248;2023-02-21T11:28:22;101851.0;;;11.29;100.0
39295;BME280;52361;52.100;5.248;2023-02-21T11:30:08;101842.0;;;11.37;100.0
39295;BME280;52361;52.100;5.248;2023-02-21T11:31:49;101845.0;;;11.35;100.0
39295;BME280;52361;52.100;5.248;2023-02-21T11:33:26;101843.0;;;11.3;100.0
39295;BME280;52361;52.100;5.248;2023-02-21T11:37:00;101841.0;;;11.36;100.0
39295;BME280;52361;52.100;5.248;2023-02-21T11:38:43;101840.0;;;11.38;100.0
39295;BME280;52361;52.100;5.248;2023-02-21T11:40:28;101840.0;;;11.37;100.0
39295;BME280;52361;52.100;5.248;2023-02-21T11:42:24;101846.0;;;11.34;100.0
39295;BME280;52361;52.100;5.248;2023-02-21T11:44:01;101846.0;;;11.42;100.0
39295;BME280;52361;52.100;5.248;2023-02-21T11:46:03;101839.0;;;11.35;100.0
39295;BME280;52361;52.100;5.248;2023-02-21T11:47:59;101840.0;;;11.24;100.0
39295;BME280;52361;52.100;5.248;2023-02-21T11:51:33;101841.0;;;11.3;100.0
39295;BME280;52361;52.100;5.248;2023-02-21T11:53:17;101836.0;;;11.29;100.0
39295;BME280;52361;52.100;5.248;2023-02-21T11:54:57;101830.0;;;11.31;100.0
39295;BME280;52361;52.100;5.248;2023-02-21T11:56:41;101837.0;;;11.27;100.0
39295;BME280;52361;52.100;5.248;2023-02-21T11:58:25;101834.0;;;11.32;100.0
39295;BME280;52361;52.100;5.248;2023-02-21T12:02:30;101832.0;;;11.35;100.0
39295;BME280;52361;52.100;5.248;2023-02-21T12:04:26;101836.0;;;11.28;100.0
39295;BME280;52361;52.100;5.248;2023-02-21T12:06:17;101834.0;;;11.28;100.0
39295;BME280;52361;52.100;5.248;2023-02-21T12:08:16;101835.0;;;11.22;100.0
39295;BME280;52361;52.100;5.248;2023-02-21T12:10:12;101830.0;;;11.34;100.0
39295;BME280;52361;52.100;5.248;2023-02-21T12:12:16;101827.0;;;11.37;100.0
39295;BME280;52361;52.100;5.248;2023-02-21T12:14:09;101830.0;;;11.4;100.0
39295;BME280;52361;52.100;5.248;2023-02-21T12:16:00;101823.0;;;11.41;100.0
39295;BME280;52361;52.100;5.248;2023-02-21T12:17:53;101824.0;;;11.41;100.0
39295;BME280;52361;52.100;5.248;2023-02-21T12:20:48;101819.0;;;11.35;100.0
39295;BME280;52361;52.100;5.248;2023-02-21T12:23:18;101818.0;;;11.23;100.0
39295;BME280;52361;52.100;5.248;2023-02-21T12:25:06;101819.0;;;11.21;100.0
39295;BME280;52361;52.100;5.248;2023-02-21T12:26:56;101816.0;;;11.13;100.0
39295;BME280;52361;52.100;5.248;2023-02-21T12:28:46;101815.0;;;11.23;100.0
39295;BME280;52361;52.100;5.248;2023-02-21T12:30:47;101811.0;;;11.38;100.0
39295;BME280;52361;52.100;5.248;2023-02-21T12:33:00;101811.0;;;11.41;100.0
39295;BME280;52361;52.100;5.248;2023-02-21T12:34:45;101807.0;;;11.21;100.0
39295;BME280;52361;52.100;5.248;2023-02-21T12:36:47;101810.0;;;11.11;100.0
39295;BME280;52361;52.100;5.248;2023-02-21T12:39:37;101813.0;;;11.12;100.0
39295;BME280;52361;52.100;5.248;2023-02-21T12:42:55;101810.0;;;11.21;100.0
39295;BME280;52361;52.100;5.248;2023-02-21T12:44:43;101805.0;;;11.4;100.0
39295;BME280;52361;52.100;5.248;2023-02-21T12:46:34;101802.0;;;11.23;100.0
39295;BME280;52361;52.100;5.248;2023-02-21T12:50:05;101797.0;;;11.29;100.0
39295;BME280;52361;52.100;5.248;2023-02-21T12:51:53;101799.0;;;11.33;100.0
39295;BME280;52361;52.100;5.248;2023-02-21T12:53:37;101795.0;;;11.28;100.0
39295;BME280;52361;52.100;5.248;2023-02-21T12:55:25;101796.0;;;11.28;100.0
39295;BME280;52361;52.100;5.248;2023-02-21T12:57:05;101795.0;;;11.27;100.0
39295;BME280;52361;52.100;5.248;2023-02-21T13:00:31;101795.0;;;11.35;100.0
39295;BME280;52361;52.100;5.248;2023-02-21T13:02:20;101791.0;;;11.35;100.0
39295;BME280;52361;52.100;5.248;2023-02-21T13:04:09;101789.0;;;11.36;100.0
39295;BME280;52361;52.100;5.248;2023-02-21T13:05:53;101783.0;;;11.43;100.0
39295;BME280;52361;52.100;5.248;2023-02-21T13:07:34;101783.0;;;11.36;100.0
39295;BME280;52361;52.100;5.248;2023-02-21T13:11:08;101785.0;;;11.36;100.0
39295;BME280;52361;52.100;5.248;2023-02-21T13:12:54;101783.0;;;11.25;100.0
39295;BME280;52361;52.100;5.248;2023-02-21T13:14:38;101786.0;;;11.26;100.0
39295;BME280;52361;52.100;5.248;2023-02-21T13:16:18;101786.0;;;11.25;100.0
39295;BME280;52361;52.100;5.248;2023-02-21T13:17:58;101785.0;;;11.33;100.0
39295;BME280;52361;52.100;5.248;2023-02-21T13:21:30;101783.0;;;11.26;100.0
39295;BME280;52361;52.100;5.248;2023-02-21T13:24:46;101780.0;;;11.16;100.0
39295;BME280;52361;52.100;5.248;2023-02-21T13:26:56;101772.0;;;11.33;100.0
39295;BME280;52361;52.100;5.248;2023-02-21T13:29:23;101773.0;;;11.35;100.0
39295;BME280;52361;52.100;5.248;2023-02-21T13:32:49;101767.0;;;11.33;100.0
39295;BME280;52361;52.100;5.248;2023-02-21T13:36:20;101764.0;;;11.39;100.0
39295;BME280;52361;52.100;5.248;2023-02-21T13:38:08;101764.0;;;11.31;100.0
39295;BME280;52361;52.100;5.248;2023-02-21T13:39:49;101758.0;;;11.29;100.0
39295;BME280;52361;52.100;5.248;2023-02-21T13:41:29;101759.0;;;11.38;100.0
39295;BME280;52361;52.100;5.248;2023-02-21T13:43:15;101755.0;;;11.31;100.0
39295;BME280;52361;52.100;5.248;2023-02-21T13:47:09;101758.0;;;11.37;100.0
39295;BME280;52361;52.100;5.248;2023-02-21T13:50:44;101757.0;;;11.34;100.0
39295;BME280;52361;52.100;5.248;2023-02-21T13:56:13;101751.0;;;11.34;100.0
39295;BME280;52361;52.100;5.248;2023-02-21T13:58:31;101747.0;;;11.21;100.0
39295;BME280;52361;52.100;5.248;2023-02-21T14:00:49;101744.0;;;11.31;100.0
39295;BME280;52361;52.100;5.248;2023-02-21T14:02:59;101747.0;;;11.38;100.0